createdAt,value
2018-03-03T00:02:10.745Z,139.70
2018-03-03T00:04:39.122Z,132.53
2018-03-03T00:07:07.476Z,140.93
2018-03-03T00:09:35.045Z,152.03
2018-03-03T00:12:02.604Z,153.87
2018-03-03T00:14:30.197Z,156.63
2018-03-03T00:16:57.764Z,131.53
2018-03-03T00:19:25.353Z,144.07
2018-03-03T00:21:52.924Z,146.70
2018-03-03T00:24:20.521Z,138.37
2018-03-03T00:26:48.283Z,132.53
2018-03-03T00:29:15.893Z,148.67
2018-03-03T00:31:43.462Z,143.60
2018-03-03T00:34:11.046Z,133.93
2018-03-03T00:36:39.381Z,138.07
2018-03-03T00:39:06.972Z,135.30
2018-03-03T00:41:34.545Z,131.90
2018-03-03T00:44:02.134Z,128.67
2018-03-03T00:46:29.717Z,130.63
2018-03-03T00:48:57.321Z,130.47
2018-03-03T00:51:25.661Z,135.93
2018-03-03T00:53:53.256Z,140.60
2018-03-03T00:56:22.341Z,139.73
2018-03-03T00:58:49.951Z,129.70
2018-03-03T01:01:17.524Z,141.77
2018-03-03T01:03:45.126Z,136.73
2018-03-03T01:06:13.471Z,112.33
2018-03-03T01:08:41.075Z,132.90
2018-03-03T01:11:08.659Z,120.10
2018-03-03T01:13:36.258Z,113.43
2018-03-03T01:16:03.839Z,113.17
2018-03-03T01:18:31.417Z,119.30
2018-03-03T01:20:59.013Z,115.60
2018-03-03T01:23:26.595Z,100.23
2018-03-03T01:25:54.205Z,116.03
2018-03-03T01:28:21.798Z,106.00
2018-03-03T01:30:49.396Z,120.53
2018-03-03T01:33:16.969Z,120.43
2018-03-03T01:35:44.577Z,116.57
2018-03-03T01:38:12.154Z,110.67
2018-03-03T01:40:39.759Z,99.43
2018-03-03T01:43:07.335Z,118.60
2018-03-03T01:45:34.935Z,101.57
2018-03-03T01:48:02.504Z,96.40
2018-03-03T01:50:30.104Z,92.03
2018-03-03T01:52:57.676Z,97.30
2018-03-03T01:55:25.273Z,105.43
2018-03-03T01:57:52.845Z,99.20
2018-03-03T02:00:21.205Z,92.93
2018-03-03T02:02:48.782Z,93.73
2018-03-03T02:05:17.148Z,108.90
2018-03-03T02:07:44.745Z,94.10
2018-03-03T02:10:12.345Z,96.53
2018-03-03T02:12:39.920Z,98.83
2018-03-03T02:15:07.522Z,98.93
2018-03-03T02:17:35.093Z,97.13
2018-03-03T02:20:02.686Z,111.50
2018-03-03T02:22:30.295Z,113.40
2018-03-03T02:24:57.896Z,125.03
2018-03-03T02:27:25.484Z,115.47
2018-03-03T02:29:53.086Z,121.13
2018-03-03T02:32:20.666Z,110.47
2018-03-03T02:34:48.274Z,107.83
2018-03-03T02:37:15.877Z,111.20
2018-03-03T02:39:43.457Z,115.73
2018-03-03T02:42:11.053Z,109.30
2018-03-03T02:44:39.394Z,118.13
2018-03-03T02:47:06.994Z,119.33
2018-03-03T02:49:35.343Z,113.13
2018-03-03T02:52:03.042Z,106.03
2018-03-03T02:54:31.386Z,109.57
2018-03-03T02:56:58.995Z,113.13
2018-03-03T02:59:26.582Z,110.00
2018-03-03T03:01:54.181Z,106.10
2018-03-03T03:04:21.764Z,106.77
2018-03-03T03:06:49.366Z,122.90
2018-03-03T03:09:16.995Z,101.50
2018-03-03T03:11:44.596Z,109.67
2018-03-03T03:14:12.173Z,110.10
2018-03-03T03:16:39.809Z,115.77
2018-03-03T03:19:07.365Z,111.30
2018-03-03T03:21:34.978Z,101.83
2018-03-03T03:24:02.555Z,96.80
2018-03-03T03:26:30.157Z,104.77
2018-03-03T03:28:57.743Z,104.03
2018-03-03T03:31:26.105Z,107.13
2018-03-03T03:33:53.808Z,84.27
2018-03-03T03:36:21.438Z,92.67
2018-03-03T03:38:49.033Z,84.63
2018-03-03T03:41:16.611Z,83.27
2018-03-03T03:43:44.201Z,84.73
2018-03-03T03:46:11.771Z,117.70
2018-03-03T03:48:40.129Z,90.83
2018-03-03T03:51:07.705Z,150.53
2018-03-03T03:53:35.300Z,102.27
2018-03-03T03:56:02.865Z,94.43
2018-03-03T03:58:30.456Z,109.33
2018-03-03T04:00:58.036Z,189.77
2018-03-03T04:03:25.630Z,155.60
2018-03-03T04:05:53.206Z,159.23
2018-03-03T04:08:20.796Z,245.20
2018-03-03T04:10:48.375Z,144.13
2018-03-03T04:13:15.974Z,298.90
2018-03-03T04:15:43.669Z,396.00
2018-03-03T04:18:11.292Z,244.73
2018-03-03T04:20:38.882Z,492.17
2018-03-03T04:23:07.017Z,286.80
2018-03-03T04:25:34.593Z,169.17
2018-03-03T04:28:02.198Z,508.20
2018-03-03T04:30:29.772Z,376.30
2018-03-03T04:32:57.373Z,478.60
2018-03-03T04:35:24.949Z,303.63
2018-03-03T04:37:52.556Z,215.97
2018-03-03T04:40:20.896Z,189.50
2018-03-03T04:42:48.473Z,117.87
2018-03-03T04:45:16.068Z,251.47
2018-03-03T04:47:43.644Z,134.57
2018-03-03T04:50:11.238Z,188.50
2018-03-03T04:52:38.807Z,93.40
2018-03-03T04:55:06.886Z,135.43
2018-03-03T04:57:34.462Z,83.57
2018-03-03T05:00:07.624Z,76.90
2018-03-03T05:02:40.809Z,88.63
2018-03-03T05:05:25.050Z,65.13
2018-03-03T05:08:09.313Z,58.80
2018-03-03T05:10:36.909Z,85.30
2018-03-03T05:13:22.069Z,61.33
2018-03-03T05:16:08.212Z,78.07
2018-03-03T05:18:41.367Z,83.40
2018-03-03T05:21:14.521Z,105.47
2018-03-03T05:23:47.704Z,81.77
2018-03-03T05:26:21.770Z,98.70
2018-03-03T05:28:54.942Z,69.67
2018-03-03T05:31:28.085Z,71.67
2018-03-03T05:34:01.439Z,100.40
2018-03-03T05:36:47.758Z,88.60
2018-03-03T05:39:35.168Z,77.00
2018-03-03T05:42:08.349Z,111.07
2018-03-03T05:44:48.654Z,142.70
2018-03-03T05:47:36.105Z,96.53
2018-03-03T05:50:09.236Z,177.27
2018-03-03T05:52:53.537Z,181.77
2018-03-03T05:55:36.818Z,185.27
2018-03-03T05:58:10.146Z,187.90
2018-03-03T06:00:49.465Z,62.20
2018-03-03T06:03:19.522Z,56.20
2018-03-03T06:06:02.783Z,60.10
2018-03-03T06:08:35.926Z,100.77
2018-03-03T06:11:04.321Z,233.00
2018-03-03T06:13:31.892Z,69.20
2018-03-03T06:15:59.476Z,60.37
2018-03-03T06:18:27.046Z,60.83
2018-03-03T06:20:54.637Z,70.50
2018-03-03T06:23:22.209Z,54.70
2018-03-03T06:25:49.801Z,71.33
2018-03-03T06:28:17.376Z,64.00
2018-03-03T06:30:44.978Z,66.10
2018-03-03T06:33:12.552Z,60.30
2018-03-03T06:35:40.916Z,71.20
2018-03-03T06:38:08.489Z,67.73
2018-03-03T06:40:36.849Z,74.53
2018-03-03T06:43:04.424Z,58.37
2018-03-03T06:45:32.022Z,55.97
2018-03-03T06:47:59.597Z,57.03
2018-03-03T06:50:27.189Z,61.67
2018-03-03T06:52:55.655Z,74.97
2018-03-03T06:55:23.228Z,239.60
2018-03-03T06:57:50.845Z,154.10
2018-03-03T07:00:18.426Z,227.70
2018-03-03T07:02:46.032Z,176.90
2018-03-03T07:05:14.385Z,154.63
2018-03-03T07:07:41.988Z,280.87
2018-03-03T07:10:10.354Z,288.90
2018-03-03T07:12:37.958Z,298.10
2018-03-03T07:15:22.349Z,296.17
2018-03-03T07:17:50.712Z,158.77
2018-03-03T07:20:18.284Z,469.20
2018-03-03T07:22:45.885Z,265.10
2018-03-03T07:25:13.465Z,244.00
2018-03-03T07:27:41.088Z,221.43
2018-03-03T07:30:08.664Z,199.37
2018-03-03T07:32:36.260Z,285.17
2018-03-03T07:35:03.856Z,397.80
2018-03-03T07:37:32.251Z,469.60
2018-03-03T07:39:59.828Z,400.43
2018-03-03T07:42:27.446Z,102.73
2018-03-03T07:44:55.790Z,120.37
2018-03-03T07:47:23.411Z,102.40
2018-03-03T07:49:51.005Z,174.43
2018-03-03T07:52:18.610Z,93.33
2018-03-03T07:54:46.185Z,64.40
2018-03-03T07:57:13.780Z,112.47
2018-03-03T07:59:41.348Z,91.97
2018-03-03T08:02:08.944Z,64.93
2018-03-03T08:04:37.293Z,142.77
2018-03-03T08:07:04.880Z,66.60
2018-03-03T08:09:32.441Z,60.13
2018-03-03T08:12:00.010Z,61.50
2018-03-03T08:14:27.612Z,176.20
2018-03-03T08:16:55.177Z,76.60
2018-03-03T08:19:22.760Z,85.10
2018-03-03T08:21:50.330Z,77.10
2018-03-03T08:24:17.926Z,115.03
2018-03-03T08:26:45.515Z,75.70
2018-03-03T08:29:13.109Z,74.13
2018-03-03T08:31:41.453Z,76.00
2018-03-03T08:34:09.054Z,92.47
2018-03-03T08:36:36.639Z,117.30
2018-03-03T08:39:05.192Z,115.97
2018-03-03T08:41:32.752Z,81.33
2018-03-03T08:44:00.348Z,70.50
2018-03-03T08:46:27.930Z,69.80
2018-03-03T08:48:55.516Z,71.17
2018-03-03T08:51:23.978Z,74.50
2018-03-03T08:53:51.546Z,78.47
2018-03-03T08:56:19.222Z,78.63
2018-03-03T08:58:46.811Z,99.07
2018-03-03T09:01:14.709Z,137.80
2018-03-03T09:03:42.313Z,94.93
2018-03-03T09:06:10.654Z,96.80
2018-03-03T09:08:38.254Z,88.10
2018-03-03T09:11:05.820Z,95.80
2018-03-03T09:13:33.416Z,107.83
2018-03-03T09:16:00.980Z,110.50
2018-03-03T09:18:28.549Z,106.10
2018-03-03T09:20:56.150Z,107.67
2018-03-03T09:23:23.728Z,114.97
2018-03-03T09:25:51.326Z,100.60
2018-03-03T09:28:18.895Z,102.50
2018-03-03T09:30:46.485Z,122.43
2018-03-03T09:33:14.249Z,100.40
2018-03-03T09:35:41.836Z,86.17
2018-03-03T09:38:09.396Z,99.30
2018-03-03T09:40:36.985Z,110.67
2018-03-03T09:43:04.557Z,100.03
2018-03-03T09:45:32.154Z,102.17
2018-03-03T09:47:59.717Z,100.77
2018-03-03T09:50:28.893Z,114.87
2018-03-03T09:52:56.486Z,113.67
2018-03-03T09:55:24.092Z,98.07
2018-03-03T09:57:51.706Z,96.20
2018-03-03T10:00:19.469Z,105.60
2018-03-03T10:02:47.050Z,101.07
2018-03-03T10:05:14.649Z,93.80
2018-03-03T10:07:42.985Z,101.40
2018-03-03T10:10:10.573Z,97.27
2018-03-03T10:12:38.137Z,100.30
2018-03-03T10:15:05.738Z,105.13
2018-03-03T10:17:33.328Z,110.20
2018-03-03T10:20:01.687Z,99.17
2018-03-03T10:22:29.253Z,99.67
2018-03-03T10:24:56.837Z,100.63
2018-03-03T10:27:24.430Z,92.63
2018-03-03T10:29:52.008Z,106.00
2018-03-03T10:32:19.597Z,106.67
2018-03-03T10:34:47.165Z,96.80
2018-03-03T10:37:14.760Z,109.93
2018-03-03T10:39:43.101Z,106.37
2018-03-03T10:42:10.709Z,106.37
2018-03-03T10:44:38.296Z,108.13
2018-03-03T10:47:05.883Z,101.70
2018-03-03T10:49:33.459Z,109.53
2018-03-03T10:52:01.054Z,101.67
2018-03-03T10:54:28.625Z,98.63
2018-03-03T10:56:56.209Z,92.00
2018-03-03T10:59:23.782Z,102.30
2018-03-03T11:01:51.378Z,104.33
2018-03-03T11:04:18.956Z,108.13
2018-03-03T11:06:48.160Z,105.90
2018-03-03T11:09:15.741Z,107.57
2018-03-03T11:11:43.345Z,98.93
2018-03-03T11:14:11.690Z,111.40
2018-03-03T11:16:39.290Z,99.80
2018-03-03T11:19:06.873Z,112.43
2018-03-03T11:21:34.477Z,102.13
2018-03-03T11:24:02.062Z,106.97
2018-03-03T11:26:30.431Z,105.80
2018-03-03T11:28:58.782Z,96.60
2018-03-03T11:31:26.382Z,105.70
2018-03-03T11:33:53.973Z,103.37
2018-03-03T11:36:21.574Z,116.77
2018-03-03T11:38:49.149Z,123.50
2018-03-03T11:41:17.509Z,112.03
2018-03-03T11:43:45.086Z,106.03
2018-03-03T11:46:13.422Z,127.77
2018-03-03T11:48:41.016Z,123.97
2018-03-03T11:51:09.354Z,138.90
2018-03-03T11:53:36.955Z,145.43
2018-03-03T11:56:04.529Z,141.43
2018-03-03T11:58:32.394Z,133.00
2018-03-03T12:00:59.965Z,134.37
2018-03-03T12:03:27.558Z,128.80
2018-03-03T12:05:55.121Z,134.63
2018-03-03T12:08:22.714Z,142.27
2018-03-03T12:10:50.294Z,144.10
2018-03-03T12:13:17.893Z,145.00
2018-03-03T12:15:45.464Z,120.73
2018-03-03T12:18:13.057Z,127.03
2018-03-03T12:20:41.394Z,130.57
2018-03-03T12:23:08.993Z,150.67
2018-03-03T12:25:37.342Z,141.97
2018-03-03T12:28:05.030Z,145.80
2018-03-03T12:30:33.406Z,141.00
2018-03-03T12:33:00.980Z,136.37
2018-03-03T12:35:28.545Z,146.57
2018-03-03T12:37:56.129Z,147.07
2018-03-03T12:40:23.697Z,146.63
2018-03-03T12:42:51.289Z,138.53
2018-03-03T12:45:18.856Z,141.27
2018-03-03T12:47:46.455Z,149.47
2018-03-03T12:50:14.022Z,148.03
2018-03-03T12:52:41.612Z,146.77
2018-03-03T12:55:09.190Z,147.60
2018-03-03T12:57:36.792Z,147.60
2018-03-03T13:00:04.360Z,163.17
2018-03-03T13:02:31.965Z,155.83
2018-03-03T13:04:59.542Z,147.77
2018-03-03T13:07:27.877Z,139.03
2018-03-03T13:09:55.465Z,167.83
2018-03-03T13:12:23.038Z,153.27
2018-03-03T13:14:51.405Z,154.30
2018-03-03T13:17:19.740Z,154.87
2018-03-03T13:19:47.348Z,157.27
2018-03-03T13:22:15.691Z,153.77
2018-03-03T13:24:43.280Z,157.63
2018-03-03T13:27:11.412Z,154.67
2018-03-03T13:29:39.900Z,155.43
2018-03-03T13:32:07.474Z,156.23
2018-03-03T13:34:35.068Z,146.90
2018-03-03T13:37:02.633Z,152.60
2018-03-03T13:39:30.220Z,148.17
2018-03-03T13:41:57.797Z,150.20
2018-03-03T13:44:25.389Z,152.53
2018-03-03T13:46:52.956Z,154.13
2018-03-03T13:49:21.313Z,150.40
2018-03-03T13:51:50.497Z,156.33
2018-03-03T13:54:18.093Z,158.53
2018-03-03T13:56:45.669Z,153.83
2018-03-03T13:59:13.270Z,160.13
2018-03-03T14:01:40.845Z,139.20
2018-03-03T14:04:08.446Z,147.97
2018-03-03T14:06:36.018Z,147.87
2018-03-03T14:09:03.613Z,145.17
2018-03-03T14:11:31.192Z,153.53
2018-03-03T14:13:58.794Z,168.20
2018-03-03T14:16:26.358Z,146.97
2018-03-03T14:18:53.954Z,160.07
2018-03-03T14:21:21.531Z,162.10
2018-03-03T14:23:49.131Z,154.53
2018-03-03T14:26:16.696Z,156.53
2018-03-03T14:28:44.289Z,163.97
2018-03-03T14:31:11.865Z,145.07
2018-03-03T14:33:40.235Z,166.47
2018-03-03T14:36:07.804Z,156.33
2018-03-03T14:38:36.194Z,156.13
2018-03-03T14:41:03.813Z,160.17
2018-03-03T14:43:31.391Z,175.50
2018-03-03T14:45:58.985Z,165.43
2018-03-03T14:48:26.558Z,169.27
2018-03-03T14:50:54.150Z,164.60
2018-03-03T14:53:21.726Z,148.53
2018-03-03T14:55:49.317Z,154.70
2018-03-03T14:58:16.884Z,156.03
2018-03-03T15:00:44.483Z,152.57
2018-03-03T15:03:12.061Z,157.83
2018-03-03T15:05:39.701Z,157.23
2018-03-03T15:08:07.269Z,160.73
2018-03-03T15:10:34.870Z,161.30
2018-03-03T15:13:02.455Z,160.17
2018-03-03T15:15:30.048Z,165.40
2018-03-03T15:17:57.626Z,161.83
2018-03-03T15:20:25.216Z,160.47
2018-03-03T15:22:52.934Z,162.13
2018-03-03T15:25:20.529Z,163.20
2018-03-03T15:27:48.116Z,166.53
2018-03-03T15:30:15.716Z,159.73
2018-03-03T15:32:43.289Z,155.90
2018-03-03T15:35:10.881Z,172.53
2018-03-03T15:37:38.450Z,173.73
2018-03-03T15:40:06.041Z,155.20
2018-03-03T15:42:33.617Z,170.10
2018-03-03T15:45:01.213Z,170.87
2018-03-03T15:47:28.788Z,166.63
2018-03-03T15:49:56.382Z,169.73
2018-03-03T15:52:23.957Z,151.37
2018-03-03T15:54:51.593Z,183.80
2018-03-03T15:57:19.174Z,153.83
2018-03-03T15:59:46.765Z,168.47
2018-03-03T16:02:14.329Z,158.63
2018-03-03T16:04:41.920Z,170.73
2018-03-03T16:07:09.497Z,169.47
2018-03-03T16:09:37.260Z,155.10
2018-03-03T16:12:04.835Z,166.37
2018-03-03T16:14:32.405Z,170.63
2018-03-03T16:17:00.761Z,179.63
2018-03-03T16:19:28.324Z,170.77
2018-03-03T16:21:55.921Z,173.60
2018-03-03T16:24:23.494Z,168.30
2018-03-03T16:26:51.086Z,188.90
2018-03-03T16:29:18.656Z,175.70
2018-03-03T16:31:46.248Z,186.87
2018-03-03T16:34:13.837Z,184.10
2018-03-03T16:36:42.000Z,176.10
2018-03-03T16:39:10.098Z,184.00
2018-03-03T16:41:38.519Z,172.57
2018-03-03T16:44:06.917Z,185.83
2018-03-03T16:46:35.087Z,170.17
2018-03-03T16:49:03.424Z,163.70
2018-03-03T16:51:31.661Z,157.10
2018-03-03T16:53:59.698Z,175.03
2018-03-03T16:56:28.030Z,161.80
2018-03-03T16:58:56.768Z,160.30
2018-03-03T17:01:24.927Z,168.07
2018-03-03T17:03:52.938Z,154.07
2018-03-03T17:06:21.312Z,171.13
2018-03-03T17:08:49.389Z,163.73
2018-03-03T17:11:17.665Z,172.03
2018-03-03T17:13:45.886Z,172.30
2018-03-03T17:16:14.224Z,163.77
2018-03-03T17:18:42.154Z,185.67
2018-03-03T17:21:10.174Z,170.20
2018-03-03T17:23:38.342Z,174.33
2018-03-03T17:26:07.360Z,175.10
2018-03-03T17:28:36.287Z,174.83
2018-03-03T17:31:04.457Z,171.97
2018-03-03T17:33:32.534Z,163.33
2018-03-03T17:36:00.688Z,160.07
2018-03-03T17:38:29.978Z,159.13
2018-03-03T17:40:57.986Z,178.97
2018-03-03T17:43:26.274Z,168.77
2018-03-03T17:45:55.286Z,192.10
2018-03-03T17:48:24.140Z,179.63
2018-03-03T17:50:52.313Z,167.77
2018-03-03T17:53:20.532Z,184.57
2018-03-03T17:55:48.462Z,199.57
2018-03-03T17:58:16.508Z,178.90
2018-03-03T18:00:44.608Z,194.77
2018-03-03T18:03:13.211Z,176.00
2018-03-03T18:05:41.389Z,172.47
2018-03-03T18:08:10.537Z,167.57
2018-03-03T18:10:38.566Z,172.97
2018-03-03T18:13:08.201Z,172.93
2018-03-03T18:15:36.344Z,179.33
2018-03-03T18:18:05.272Z,171.33
2018-03-03T18:20:33.605Z,165.17
2018-03-03T18:23:01.767Z,179.60
2018-03-03T18:25:30.942Z,177.67
2018-03-03T18:27:58.602Z,195.80
2018-03-03T18:30:26.173Z,194.73
2018-03-03T18:32:53.796Z,183.83
2018-03-03T18:35:21.364Z,182.70
2018-03-03T18:37:48.925Z,169.77
2018-03-03T18:40:17.171Z,169.83
2018-03-03T18:42:45.283Z,177.23
2018-03-03T18:45:14.448Z,185.50
2018-03-03T18:47:42.783Z,187.20
2018-03-03T18:50:10.454Z,182.23
2018-03-03T18:52:38.057Z,173.13
2018-03-03T18:55:05.657Z,179.53
2018-03-03T18:57:33.231Z,168.63
2018-03-03T19:00:00.825Z,176.63
2018-03-03T19:02:29.167Z,160.10
2018-03-03T19:04:56.764Z,178.73
2018-03-03T19:07:24.338Z,188.30
2018-03-03T19:09:51.924Z,171.40
2018-03-03T19:12:19.501Z,183.73
2018-03-03T19:14:47.097Z,201.80
2018-03-03T19:17:15.434Z,212.07
2018-03-03T19:19:43.037Z,195.33
2018-03-03T19:22:10.622Z,183.40
2018-03-03T19:24:38.221Z,165.67
2018-03-03T19:27:05.789Z,169.87
2018-03-03T19:29:33.392Z,164.00
2018-03-03T19:32:00.961Z,168.77
2018-03-03T19:34:28.559Z,167.60
2018-03-03T19:36:56.134Z,175.87
2018-03-03T19:39:23.732Z,188.27
2018-03-03T19:41:51.753Z,174.93
2018-03-03T19:44:19.429Z,169.13
2018-03-03T19:46:47.769Z,171.13
2018-03-03T19:49:15.372Z,176.23
2018-03-03T19:51:42.936Z,183.57
2018-03-03T19:54:11.272Z,171.10
2018-03-03T19:56:38.869Z,164.43
2018-03-03T19:59:06.444Z,173.70
2018-03-03T20:01:34.045Z,189.80
2018-03-03T20:04:01.625Z,176.10
2018-03-03T20:06:29.220Z,187.17
2018-03-03T20:08:56.790Z,193.10
2018-03-03T20:11:24.384Z,189.50
2018-03-03T20:13:51.964Z,192.13
2018-03-03T20:16:19.571Z,186.37
2018-03-03T20:18:47.151Z,182.53
2018-03-03T20:21:14.763Z,171.00
2018-03-03T20:23:43.098Z,178.57
2018-03-03T20:26:11.811Z,170.57
2018-03-03T20:28:39.853Z,155.67
2018-03-03T20:31:08.839Z,157.10
2018-03-03T20:33:39.319Z,153.77
2018-03-03T20:36:08.299Z,149.83
2018-03-03T20:38:36.217Z,154.63
2018-03-03T20:41:04.649Z,169.20
2018-03-03T20:43:32.993Z,161.53
2018-03-03T20:46:00.592Z,165.10
2018-03-03T20:48:28.810Z,179.73
2018-03-03T20:50:56.386Z,185.80
2018-03-03T20:53:24.016Z,196.57
2018-03-03T20:55:51.629Z,188.87
2018-03-03T20:58:19.205Z,180.67
2018-03-03T21:00:46.782Z,183.10
2018-03-03T21:03:14.384Z,185.00
2018-03-03T21:05:41.953Z,192.10
2018-03-03T21:08:10.445Z,186.50
2018-03-03T21:10:38.789Z,192.90
2018-03-03T21:13:06.386Z,185.73
2018-03-03T21:15:33.959Z,191.50
2018-03-03T21:18:01.699Z,186.83
2018-03-03T21:20:29.275Z,180.20
2018-03-03T21:22:57.637Z,193.37
2018-03-03T21:25:25.215Z,179.70
2018-03-03T21:27:52.826Z,182.70
2018-03-03T21:30:20.465Z,175.17
2018-03-03T21:32:48.076Z,177.63
2018-03-03T21:35:15.675Z,164.93
2018-03-03T21:37:43.310Z,173.40
2018-03-03T21:40:10.942Z,188.50
2018-03-03T21:42:38.671Z,163.00
2018-03-03T21:45:06.247Z,159.03
2018-03-03T21:47:33.855Z,157.60
2018-03-03T21:50:02.198Z,148.33
2018-03-03T21:52:29.794Z,169.80
2018-03-03T21:54:58.134Z,172.43
2018-03-03T21:57:25.786Z,182.27
2018-03-03T21:59:53.320Z,168.20
2018-03-03T22:02:20.913Z,175.63
2018-03-03T22:04:48.489Z,175.97
2018-03-03T22:07:16.062Z,179.83
2018-03-03T22:09:44.734Z,175.17
2018-03-03T22:12:13.082Z,179.30
2018-03-03T22:14:40.672Z,183.03
2018-03-03T22:17:08.244Z,176.70
2018-03-03T22:19:35.837Z,189.90
2018-03-03T22:22:03.815Z,178.00
2018-03-03T22:24:31.777Z,173.23
2018-03-03T22:27:00.856Z,172.10
2018-03-03T22:29:28.499Z,176.30
2018-03-03T22:31:56.077Z,167.27
2018-03-03T22:34:23.674Z,163.00
2018-03-03T22:36:52.255Z,162.23
2018-03-03T22:39:20.660Z,160.33
2018-03-03T22:41:48.993Z,193.30
2018-03-03T22:44:16.590Z,186.20
2018-03-03T22:46:44.161Z,171.20
2018-03-03T22:49:13.468Z,171.60
2018-03-03T22:51:41.805Z,168.37
2018-03-03T22:54:09.393Z,173.70
2018-03-03T22:56:37.729Z,171.73
2018-03-03T22:59:05.330Z,167.50
2018-03-03T23:01:32.905Z,173.10
2018-03-03T23:04:01.261Z,175.93
2018-03-03T23:06:28.824Z,172.40
2018-03-03T23:08:57.185Z,159.27
2018-03-03T23:11:24.761Z,162.73
2018-03-03T23:13:53.120Z,164.70
2018-03-03T23:16:20.720Z,167.43
2018-03-03T23:18:48.309Z,154.97
2018-03-03T23:21:15.892Z,148.97
2018-03-03T23:23:43.465Z,155.37
2018-03-03T23:26:11.058Z,157.53
2018-03-03T23:28:38.642Z,153.80
2018-03-03T23:31:06.244Z,157.27
2018-03-03T23:33:33.822Z,166.10
2018-03-03T23:36:01.415Z,166.77
2018-03-03T23:38:28.982Z,159.20
2018-03-03T23:40:56.581Z,159.97
2018-03-03T23:43:24.150Z,169.60
2018-03-03T23:45:52.534Z,141.70
2018-03-03T23:48:20.109Z,131.63
2018-03-03T23:50:47.901Z,138.53
2018-03-03T23:53:15.478Z,148.20
2018-03-03T23:55:43.068Z,124.90
2018-03-03T23:58:10.637Z,141.60
